Fernie, Canada
Current Conditions -  °F | °C
As of 2:00 PM on Saturday 25 Oct 2014 (Local Time) from CYXC Reporting Station
Broken Clouds Broken Clouds  
Wind Chill: 48°   Ceiling: 25000
Heat Index: 48°   Visibility: 25mi
Dew Point: 34°   Wind: 3mph
Humidity: 57%   Direction: NA
Pressure: 29.72"   Gusts: NA
Location:  49.51°N, 115.06°W
Report Text: CYXC 252000Z VRB03KT 25SM FEW050 FEW160 BKN250 09/01 A2972 RMK SC1AC1CI4 SLP080 DENSITY ALT 3300FT
Loading
Personal Weather Stations






























Interactive Weather Map
Tropical Storm Tracking
New forecast layout! Learn more

10-Day Weather Forecast

Advertisements
Track Severe Weather on mobile